createdAt,value
2018-03-04T00:00:48.207Z,33.88
2018-03-04T00:03:15.692Z,35.70
2018-03-04T00:05:43.173Z,34.97
2018-03-04T00:08:10.655Z,35.63
2018-03-04T00:10:38.920Z,34.05
2018-03-04T00:13:06.399Z,33.85
2018-03-04T00:15:34.650Z,34.70
2018-03-04T00:18:02.225Z,35.17
2018-03-04T00:20:30.515Z,34.00
2018-03-04T00:22:58.755Z,32.97
2018-03-04T00:25:26.236Z,33.85
2018-03-04T00:27:54.603Z,34.83
2018-03-04T00:30:22.080Z,35.08
2018-03-04T00:32:50.335Z,35.17
2018-03-04T00:35:17.896Z,36.22
2018-03-04T00:37:45.455Z,37.40
2018-03-04T00:40:12.940Z,36.25
2018-03-04T00:42:41.183Z,35.17
2018-03-04T00:45:08.663Z,37.38
2018-03-04T00:47:36.911Z,36.35
2018-03-04T00:50:04.387Z,34.47
2018-03-04T00:52:31.940Z,36.67
2018-03-04T00:54:59.427Z,34.92
2018-03-04T00:57:27.679Z,37.03
2018-03-04T00:59:55.171Z,37.75
2018-03-04T01:02:22.647Z,37.28
2018-03-04T01:04:50.135Z,39.67
2018-03-04T01:07:17.713Z,41.75
2018-03-04T01:09:45.191Z,37.78
2018-03-04T01:12:13.447Z,39.45
2018-03-04T01:14:42.439Z,39.85
2018-03-04T01:17:09.916Z,38.40
2018-03-04T01:19:38.207Z,39.22
2018-03-04T01:22:06.444Z,39.15
2018-03-04T01:24:34.023Z,36.83
2018-03-04T01:27:02.260Z,39.22
2018-03-04T01:29:29.741Z,40.55
2018-03-04T01:31:57.307Z,38.28
2018-03-04T01:34:24.805Z,37.72
2018-03-04T01:36:52.327Z,40.22
2018-03-04T01:39:19.811Z,37.35
2018-03-04T01:41:48.160Z,38.47
2018-03-04T01:44:15.730Z,38.35
2018-03-04T01:46:43.207Z,39.08
2018-03-04T01:49:10.735Z,40.53
2018-03-04T01:51:50.015Z,41.50
2018-03-04T01:54:17.493Z,41.90
2018-03-04T01:56:44.983Z,37.67
2018-03-04T01:59:12.463Z,38.83
2018-03-04T02:01:40.734Z,39.97
2018-03-04T02:04:08.203Z,39.78
2018-03-04T02:06:36.556Z,39.40
2018-03-04T02:09:04.034Z,40.12
2018-03-04T02:11:32.296Z,39.80
2018-03-04T02:14:00.545Z,39.80
2018-03-04T02:16:28.027Z,42.70
2018-03-04T02:18:55.504Z,41.78
2018-03-04T02:21:23.754Z,39.65
2018-03-04T02:23:52.002Z,39.83
2018-03-04T02:26:19.487Z,41.47
2018-03-04T02:28:46.970Z,40.00
2018-03-04T02:31:15.224Z,43.17
2018-03-04T02:33:43.153Z,44.85
2018-03-04T02:36:10.626Z,42.00
2018-03-04T02:38:38.113Z,42.75
2018-03-04T02:41:05.682Z,41.92
2018-03-04T02:43:33.161Z,45.80
2018-03-04T02:46:01.406Z,40.33
2018-03-04T02:48:28.920Z,42.85
2018-03-04T02:50:57.144Z,40.80
2018-03-04T02:53:24.625Z,41.15
2018-03-04T02:55:52.878Z,43.67
2018-03-04T02:58:20.439Z,42.67
2018-03-04T03:00:48.002Z,42.28
2018-03-04T03:03:15.476Z,42.15
2018-03-04T03:05:43.743Z,40.70
2018-03-04T03:08:11.202Z,43.05
2018-03-04T03:10:39.454Z,39.42
2018-03-04T03:13:06.933Z,42.78
2018-03-04T03:15:34.414Z,41.20
2018-03-04T03:18:02.650Z,44.60
2018-03-04T03:20:30.133Z,45.78
2018-03-04T03:22:58.399Z,42.60
2018-03-04T03:25:25.887Z,41.72
2018-03-04T03:27:54.136Z,44.25
2018-03-04T03:30:21.623Z,45.33
2018-03-04T03:32:49.096Z,43.67
2018-03-04T03:35:16.578Z,41.37
2018-03-04T03:37:44.053Z,42.67
2018-03-04T03:40:11.533Z,41.30
2018-03-04T03:42:39.799Z,41.17
2018-03-04T03:45:07.347Z,43.92
2018-03-04T03:47:34.826Z,43.20
2018-03-04T03:50:03.070Z,41.47
2018-03-04T03:52:30.649Z,44.67
2018-03-04T03:54:58.118Z,44.30
2018-03-04T03:57:26.394Z,43.05
2018-03-04T03:59:54.672Z,44.30
2018-03-04T04:02:22.927Z,40.17
2018-03-04T04:04:50.400Z,43.38
2018-03-04T04:07:18.415Z,41.95
2018-03-04T04:09:45.883Z,44.30
2018-03-04T04:12:13.359Z,42.08
2018-03-04T04:14:40.830Z,44.55
2018-03-04T04:17:08.334Z,44.45
2018-03-04T04:19:35.803Z,42.92
2018-03-04T04:22:03.287Z,44.05
2018-03-04T04:24:30.791Z,44.05
2018-03-04T04:26:59.051Z,42.22
2018-03-04T04:29:26.522Z,41.53
2018-03-04T04:31:54.804Z,40.53
2018-03-04T04:34:23.033Z,41.22
2018-03-04T04:36:50.622Z,41.75
2018-03-04T04:39:18.090Z,40.70
2018-03-04T04:41:46.346Z,40.80
2018-03-04T04:44:13.827Z,41.25
2018-03-04T04:46:42.082Z,41.58
2018-03-04T04:49:09.554Z,42.47
2018-03-04T04:51:37.829Z,42.30
2018-03-04T04:54:06.065Z,43.83
2018-03-04T04:56:33.539Z,42.17
2018-03-04T04:59:01.017Z,41.97
2018-03-04T05:01:28.495Z,44.03
2018-03-04T05:03:56.739Z,42.45
2018-03-04T05:06:24.226Z,41.85
2018-03-04T05:08:52.462Z,44.17
2018-03-04T05:11:19.946Z,43.03
2018-03-04T05:13:48.196Z,44.22
2018-03-04T05:16:15.674Z,43.55
2018-03-04T05:18:43.150Z,43.45
2018-03-04T05:21:11.399Z,45.35
2018-03-04T05:23:38.870Z,44.47
2018-03-04T05:26:07.131Z,45.08
2018-03-04T05:28:36.110Z,43.95
2018-03-04T05:31:03.591Z,44.30
2018-03-04T05:33:31.152Z,45.20
2018-03-04T05:35:58.629Z,42.20
2018-03-04T05:38:26.874Z,44.50
2018-03-04T05:40:54.444Z,44.35
2018-03-04T05:43:21.933Z,47.58
2018-03-04T05:45:50.159Z,45.00
2018-03-04T05:48:17.656Z,43.58
2018-03-04T05:50:45.895Z,46.60
2018-03-04T05:53:13.388Z,46.75
2018-03-04T05:55:41.646Z,45.17
2018-03-04T05:58:09.130Z,47.38
2018-03-04T06:00:37.390Z,47.45
2018-03-04T06:03:04.862Z,45.90
2018-03-04T06:05:33.099Z,45.58
2018-03-04T06:08:00.674Z,45.25
2018-03-04T06:10:28.977Z,45.83
2018-03-04T06:12:57.257Z,44.15
2018-03-04T06:15:25.488Z,44.45
2018-03-04T06:17:52.976Z,47.92
2018-03-04T06:20:21.218Z,46.58
2018-03-04T06:22:48.694Z,45.92
2018-03-04T06:25:16.170Z,46.03
2018-03-04T06:27:44.414Z,49.17
2018-03-04T06:30:11.882Z,48.92
2018-03-04T06:32:39.448Z,47.88
2018-03-04T06:35:06.923Z,47.20
2018-03-04T06:37:35.169Z,46.33
2018-03-04T06:40:02.654Z,48.35
2018-03-04T06:42:30.895Z,47.55
2018-03-04T06:44:58.381Z,47.17
2018-03-04T06:47:26.639Z,51.17
2018-03-04T06:49:54.111Z,47.40
2018-03-04T06:52:21.673Z,49.60
2018-03-04T06:54:49.143Z,49.42
2018-03-04T06:57:17.387Z,47.30
2018-03-04T06:59:44.866Z,48.72
2018-03-04T07:02:12.414Z,49.33
2018-03-04T07:04:39.895Z,50.28
2018-03-04T07:07:08.162Z,50.45
2018-03-04T07:09:35.638Z,51.83
2018-03-04T07:12:03.875Z,51.78
2018-03-04T07:14:31.445Z,50.10
2018-03-04T07:16:59.059Z,49.35
2018-03-04T07:19:26.486Z,47.83
2018-03-04T07:21:54.735Z,50.78
2018-03-04T07:24:22.224Z,47.72
2018-03-04T07:26:50.581Z,49.53
2018-03-04T07:29:18.050Z,49.35
2018-03-04T07:31:46.319Z,51.25
2018-03-04T07:34:13.879Z,48.97
2018-03-04T07:36:41.363Z,48.17
2018-03-04T07:39:09.598Z,50.03
2018-03-04T07:41:37.078Z,49.78
2018-03-04T07:44:05.323Z,51.40
2018-03-04T07:46:32.808Z,48.78
2018-03-04T07:49:00.314Z,50.97
2018-03-04T07:51:27.788Z,48.38
2018-03-04T07:53:55.267Z,51.92
2018-03-04T07:56:22.746Z,50.70
2018-03-04T07:58:51.003Z,49.30
2018-03-04T08:01:18.479Z,50.33
2018-03-04T08:03:46.736Z,50.17
2018-03-04T08:06:14.227Z,49.55
2018-03-04T08:08:42.467Z,52.40
2018-03-04T08:11:10.039Z,54.80
2018-03-04T08:13:37.519Z,50.38
2018-03-04T08:16:05.755Z,50.45
2018-03-04T08:18:33.266Z,51.28
2018-03-04T08:21:01.512Z,49.40
2018-03-04T08:23:29.075Z,51.67
2018-03-04T08:26:08.587Z,52.65
2018-03-04T08:28:36.094Z,47.90
2018-03-04T08:31:04.354Z,51.28
2018-03-04T08:33:31.855Z,50.28
2018-03-04T08:35:59.338Z,52.72
2018-03-04T08:38:26.830Z,52.65
2018-03-04T08:40:54.310Z,50.45
2018-03-04T08:43:21.846Z,50.50
2018-03-04T08:45:50.088Z,48.65
2018-03-04T08:48:17.838Z,51.03
2018-03-04T08:50:45.348Z,50.07
2018-03-04T08:53:12.898Z,51.80
2018-03-04T08:55:40.372Z,47.55
2018-03-04T08:58:08.614Z,47.93
2018-03-04T09:00:36.090Z,45.92
2018-03-04T09:03:03.660Z,50.65
2018-03-04T09:05:31.898Z,45.33
2018-03-04T09:07:59.478Z,49.72
2018-03-04T09:10:26.956Z,49.70
2018-03-04T09:12:55.211Z,48.77
2018-03-04T09:15:22.673Z,47.23
2018-03-04T09:17:50.143Z,50.00
2018-03-04T09:20:17.609Z,49.20
2018-03-04T09:22:45.858Z,51.65
2018-03-04T09:25:13.332Z,47.73
2018-03-04T09:27:40.802Z,48.03
2018-03-04T09:30:09.032Z,46.67
2018-03-04T09:32:36.515Z,47.00
2018-03-04T09:35:03.983Z,44.60
2018-03-04T09:37:31.446Z,49.37
2018-03-04T09:42:52.353Z,46.97
2018-03-04T09:45:19.855Z,46.90
2018-03-04T09:47:48.091Z,48.43
2018-03-04T09:50:15.554Z,46.80
2018-03-04T09:52:43.027Z,44.80
2018-03-04T09:55:10.486Z,45.40
2018-03-04T09:57:38.717Z,44.87
2018-03-04T10:00:06.250Z,46.87
2018-03-04T10:02:33.744Z,49.20
2018-03-04T10:05:01.237Z,45.40
2018-03-04T10:07:28.701Z,46.30
2018-03-04T10:09:56.946Z,45.43
2018-03-04T10:12:24.409Z,49.27
2018-03-04T10:14:51.897Z,45.97
2018-03-04T10:17:20.137Z,48.17
2018-03-04T10:19:47.603Z,50.07
2018-03-04T10:22:15.450Z,46.60
2018-03-04T10:24:42.930Z,46.37
2018-03-04T10:27:10.390Z,47.90
2018-03-04T10:29:37.864Z,50.70
2018-03-04T10:32:06.091Z,48.67
2018-03-04T10:34:34.048Z,49.50
2018-03-04T10:37:02.349Z,46.80
2018-03-04T10:39:29.840Z,47.23
2018-03-04T10:41:57.291Z,47.20
2018-03-04T10:47:19.006Z,53.50
2018-03-04T10:49:46.475Z,48.53
2018-03-04T10:52:14.655Z,51.77
2018-03-04T10:54:42.129Z,50.53
2018-03-04T10:57:09.590Z,51.13
2018-03-04T10:59:37.059Z,49.60
2018-03-04T11:02:05.591Z,49.30
2018-03-04T11:04:33.059Z,50.07
2018-03-04T11:07:00.518Z,48.07
2018-03-04T11:09:28.755Z,50.47
2018-03-04T11:11:56.225Z,48.20
2018-03-04T11:14:23.703Z,45.67
2018-03-04T11:16:51.154Z,49.80
2018-03-04T11:19:18.635Z,50.37
2018-03-04T11:21:46.104Z,48.53
2018-03-04T11:24:13.579Z,49.33
2018-03-04T11:26:41.806Z,49.00
2018-03-04T11:29:09.284Z,48.20
2018-03-04T11:31:36.781Z,49.07
2018-03-04T11:34:05.014Z,52.70
2018-03-04T11:36:32.475Z,50.70
2018-03-04T11:38:59.962Z,48.80
2018-03-04T11:41:27.418Z,50.03
2018-03-04T11:43:54.895Z,46.77
2018-03-04T11:46:23.125Z,49.07
2018-03-04T11:48:50.620Z,47.53
2018-03-04T11:51:18.847Z,48.97
2018-03-04T11:53:46.323Z,47.87
2018-03-04T11:56:13.793Z,51.80
2018-03-04T11:58:41.296Z,49.30
2018-03-04T12:01:08.764Z,50.87
2018-03-04T12:03:36.231Z,50.63
2018-03-04T12:06:03.697Z,50.73
2018-03-04T12:08:31.167Z,49.03
2018-03-04T12:10:58.667Z,50.67
2018-03-04T12:13:26.907Z,48.73
2018-03-04T12:15:54.395Z,49.30
2018-03-04T12:18:22.626Z,46.93
2018-03-04T12:20:50.102Z,45.27
2018-03-04T12:23:17.574Z,44.27
2018-03-04T12:25:45.046Z,46.43
2018-03-04T12:28:13.276Z,43.47
2018-03-04T12:30:40.743Z,43.10
2018-03-04T12:33:08.217Z,42.50
2018-03-04T12:35:35.692Z,42.93
2018-03-04T12:38:03.169Z,41.80
2018-03-04T12:40:31.430Z,42.43
2018-03-04T12:42:58.902Z,40.30
2018-03-04T12:45:27.130Z,38.57
2018-03-04T12:47:54.594Z,39.67
2018-03-04T12:50:22.066Z,40.57
2018-03-04T12:52:49.542Z,41.13
2018-03-04T12:55:17.778Z,64.27
2018-03-04T12:57:45.238Z,43.93
2018-03-04T13:00:12.714Z,43.33
2018-03-04T13:02:40.221Z,45.10
2018-03-04T13:05:07.658Z,44.40
2018-03-04T13:07:35.903Z,50.80
2018-03-04T13:10:03.370Z,44.07
2018-03-04T13:12:30.835Z,44.20
2018-03-04T13:15:01.058Z,47.23
2018-03-04T13:17:28.515Z,43.90
2018-03-04T13:19:56.002Z,42.60
2018-03-04T13:22:24.121Z,42.83
2018-03-04T13:24:52.294Z,38.37
2018-03-04T13:27:20.238Z,38.60
2018-03-04T13:29:47.703Z,41.03
2018-03-04T13:32:15.170Z,39.10
2018-03-04T13:34:42.643Z,36.63
2018-03-04T13:37:10.122Z,38.40
2018-03-04T13:39:37.594Z,37.37
2018-03-04T13:42:05.837Z,34.47
2018-03-04T13:44:33.318Z,29.53
2018-03-04T13:47:00.796Z,29.83
2018-03-04T13:49:29.036Z,28.87
2018-03-04T13:51:56.534Z,28.97
2018-03-04T13:54:24.770Z,28.50
2018-03-04T13:56:52.238Z,28.00
2018-03-04T13:59:19.715Z,27.13
2018-03-04T14:01:47.951Z,26.30
2018-03-04T14:04:15.496Z,29.37
2018-03-04T14:06:42.958Z,27.73
2018-03-04T14:09:10.438Z,28.07
2018-03-04T14:11:37.903Z,27.03
2018-03-04T14:14:05.376Z,28.57
2018-03-04T14:16:32.929Z,27.10
2018-03-04T14:19:00.338Z,27.03
2018-03-04T14:21:27.819Z,23.47
2018-03-04T14:23:55.287Z,25.93
2018-03-04T14:26:22.767Z,25.93
2018-03-04T14:28:50.254Z,28.97
2018-03-04T14:31:17.733Z,27.80
2018-03-04T14:33:45.190Z,28.43
2018-03-04T14:36:12.702Z,25.30
2018-03-04T14:38:40.123Z,31.40
2018-03-04T14:41:07.615Z,30.23
2018-03-04T14:43:35.079Z,31.47
2018-03-04T14:46:02.559Z,30.90
2018-03-04T14:48:34.605Z,27.00
2018-03-04T14:51:02.082Z,25.73
2018-03-04T14:53:30.319Z,17.57
2018-03-04T14:55:57.804Z,16.80
2018-03-04T14:58:26.026Z,17.40
2018-03-04T15:00:53.508Z,20.30
2018-03-04T15:03:20.978Z,16.80
2018-03-04T15:05:48.467Z,19.57
2018-03-04T15:08:16.692Z,20.27
2018-03-04T15:10:44.930Z,23.50
2018-03-04T15:13:12.399Z,21.63
2018-03-04T15:15:39.887Z,25.03
2018-03-04T15:18:07.391Z,26.47
2018-03-04T15:20:36.543Z,26.00
2018-03-04T15:23:04.010Z,27.20
2018-03-04T15:25:31.478Z,26.30
2018-03-04T15:27:58.936Z,24.30
2018-03-04T15:30:26.413Z,26.13
2018-03-04T15:32:54.651Z,25.10
2018-03-04T15:35:22.138Z,24.17
2018-03-04T15:37:49.603Z,27.77
2018-03-04T15:40:17.838Z,26.80
2018-03-04T15:42:45.303Z,24.10
2018-03-04T15:45:12.774Z,24.00
2018-03-04T15:47:40.238Z,23.67
2018-03-04T15:50:07.729Z,24.30
2018-03-04T15:52:35.963Z,23.40
2018-03-04T15:55:03.447Z,23.60
2018-03-04T15:57:30.911Z,23.20
2018-03-04T15:59:59.150Z,23.70
2018-03-04T16:02:27.398Z,23.57
2018-03-04T16:04:54.865Z,24.40
2018-03-04T16:07:22.330Z,23.97
2018-03-04T16:09:49.802Z,24.77
2018-03-04T16:12:17.266Z,23.20
2018-03-04T16:14:44.734Z,20.47
2018-03-04T16:17:12.275Z,21.57
2018-03-04T16:19:39.742Z,22.77
2018-03-04T16:22:07.216Z,19.73
2018-03-04T16:24:34.783Z,20.93
2018-03-04T16:27:02.247Z,23.43
2018-03-04T16:29:30.483Z,23.83
2018-03-04T16:31:58.824Z,23.07
2018-03-04T16:34:26.399Z,25.33
2018-03-04T16:36:53.902Z,23.53
2018-03-04T16:39:21.470Z,24.40
2018-03-04T16:41:48.934Z,23.73
2018-03-04T16:44:17.158Z,27.13
2018-03-04T16:46:44.631Z,25.07
2018-03-04T16:49:12.102Z,26.33
2018-03-04T16:51:39.666Z,24.20
2018-03-04T16:54:07.138Z,26.37
2018-03-04T16:56:34.610Z,23.43
2018-03-04T16:59:02.874Z,24.43
2018-03-04T17:01:31.118Z,26.00
2018-03-04T17:03:58.602Z,23.27
2018-03-04T17:06:26.074Z,23.00
2018-03-04T17:08:54.313Z,25.27
2018-03-04T17:11:21.786Z,25.20
2018-03-04T17:13:49.253Z,23.20
2018-03-04T17:16:16.746Z,24.10
2018-03-04T17:18:44.975Z,25.83
2018-03-04T17:21:12.451Z,26.13
2018-03-04T17:23:40.037Z,24.20
2018-03-04T17:26:08.283Z,26.27
2018-03-04T17:28:35.835Z,24.50
2018-03-04T17:31:03.408Z,25.23
2018-03-04T17:33:30.956Z,25.63
2018-03-04T17:35:59.235Z,25.27
2018-03-04T17:38:27.463Z,25.57
2018-03-04T17:40:54.975Z,23.60
2018-03-04T17:43:22.439Z,23.97
2018-03-04T17:45:49.914Z,23.87
2018-03-04T17:48:18.186Z,30.60
2018-03-04T17:50:46.540Z,33.37
2018-03-04T17:53:14.006Z,29.70
2018-03-04T17:55:42.646Z,29.10
2018-03-04T17:58:10.160Z,29.77
2018-03-04T18:00:37.724Z,31.63
2018-03-04T18:03:07.004Z,28.47
2018-03-04T18:05:34.566Z,29.60
2018-03-04T18:08:02.047Z,25.70
2018-03-04T18:10:30.285Z,27.03
2018-03-04T18:12:57.759Z,26.83
2018-03-04T18:15:25.222Z,26.40
2018-03-04T18:17:52.708Z,27.40
2018-03-04T18:20:20.934Z,30.50
2018-03-04T18:22:48.412Z,25.67
2018-03-04T18:25:15.873Z,27.80
2018-03-04T18:27:44.856Z,29.13
2018-03-04T18:30:12.438Z,25.33
2018-03-04T18:32:39.907Z,28.67
2018-03-04T18:35:08.168Z,34.60
2018-03-04T18:37:35.656Z,37.30
2018-03-04T18:40:03.175Z,40.20
2018-03-04T18:42:30.646Z,30.30
2018-03-04T18:44:58.910Z,34.47
2018-03-04T18:47:26.387Z,32.30
2018-03-04T18:49:54.622Z,38.17
2018-03-04T18:52:22.095Z,40.87
2018-03-04T18:54:49.554Z,52.27
2018-03-04T18:57:17.022Z,41.20
2018-03-04T18:59:44.522Z,37.80
2018-03-04T19:02:11.978Z,40.13
2018-03-04T19:04:40.274Z,40.80
2018-03-04T19:07:07.776Z,41.57
2018-03-04T19:09:35.351Z,39.17
2018-03-04T19:12:02.864Z,33.30
2018-03-04T19:14:37.725Z,35.20
2018-03-04T19:17:05.191Z,33.83
2018-03-04T19:19:32.662Z,32.37
2018-03-04T19:22:00.954Z,35.00
2018-03-04T19:24:28.383Z,39.03
2018-03-04T19:26:55.879Z,40.40
2018-03-04T19:29:23.351Z,43.53
2018-03-04T19:31:50.830Z,42.63
2018-03-04T19:34:18.311Z,43.07
2018-03-04T19:36:46.663Z,44.33
2018-03-04T19:39:14.146Z,44.57
2018-03-04T19:41:41.620Z,44.20
2018-03-04T19:44:09.874Z,44.03
2018-03-04T19:46:37.372Z,43.40
2018-03-04T19:49:04.890Z,44.17
2018-03-04T19:51:33.119Z,42.50
2018-03-04T19:54:00.599Z,44.03
2018-03-04T19:56:28.066Z,45.63
2018-03-04T19:58:55.569Z,43.30
2018-03-04T20:01:23.009Z,45.37
2018-03-04T20:03:50.476Z,46.90
2018-03-04T20:06:18.026Z,46.40
2018-03-04T20:08:45.587Z,43.83
2018-03-04T20:11:13.060Z,43.00
2018-03-04T20:13:41.316Z,44.37
2018-03-04T20:16:08.878Z,45.73
2018-03-04T20:18:37.111Z,46.60
2018-03-04T20:21:04.698Z,47.30
2018-03-04T20:23:33.016Z,48.20
2018-03-04T20:26:01.263Z,48.90
2018-03-04T20:28:28.831Z,47.60
2018-03-04T20:30:56.303Z,45.17
2018-03-04T20:33:24.534Z,43.27
2018-03-04T20:35:52.027Z,48.00
2018-03-04T20:38:19.583Z,46.10
2018-03-04T20:40:47.058Z,45.67
2018-03-04T20:43:15.304Z,45.33
2018-03-04T20:45:42.780Z,44.40
2018-03-04T20:48:10.242Z,47.03
2018-03-04T20:50:37.720Z,47.27
2018-03-04T20:53:05.945Z,45.43
2018-03-04T20:55:33.461Z,46.70
2018-03-04T20:58:01.692Z,41.03
2018-03-04T21:00:29.165Z,43.70
2018-03-04T21:02:56.714Z,40.53
2018-03-04T21:05:24.193Z,42.63
2018-03-04T21:07:51.751Z,39.03
2018-03-04T21:10:19.227Z,42.20
2018-03-04T21:12:47.529Z,42.00
2018-03-04T21:15:14.990Z,42.63
2018-03-04T21:17:42.460Z,42.57
2018-03-04T21:20:09.930Z,40.60
2018-03-04T21:22:37.414Z,41.63
2018-03-04T21:25:04.876Z,43.27
2018-03-04T21:27:33.121Z,48.50
2018-03-04T21:30:00.601Z,46.08
2018-03-04T21:32:28.158Z,46.40
2018-03-04T21:34:55.719Z,47.07
2018-03-04T21:37:23.306Z,41.57
2018-03-04T21:39:51.533Z,49.53
2018-03-04T21:42:19.033Z,45.00
2018-03-04T21:44:47.291Z,43.92
2018-03-04T21:47:14.875Z,44.83
2018-03-04T21:49:43.103Z,45.80
2018-03-04T21:52:10.574Z,47.73
2018-03-04T21:54:38.046Z,46.90
2018-03-04T21:57:05.527Z,48.63
2018-03-04T21:59:33.757Z,46.10
2018-03-04T22:02:01.447Z,49.50
2018-03-04T22:04:30.420Z,47.23
2018-03-04T22:06:57.903Z,49.03
2018-03-04T22:09:25.381Z,49.20
2018-03-04T22:11:53.731Z,48.00
2018-03-04T22:14:21.187Z,48.03
2018-03-04T22:16:48.654Z,47.53
2018-03-04T22:19:16.119Z,47.87
2018-03-04T22:21:44.363Z,47.63
2018-03-04T22:24:11.942Z,48.13
2018-03-04T22:26:39.418Z,47.27
2018-03-04T22:29:07.655Z,47.07
2018-03-04T22:31:35.229Z,47.70
2018-03-04T22:34:02.707Z,48.63
2018-03-04T22:36:30.956Z,49.20
2018-03-04T22:38:58.416Z,50.57
2018-03-04T22:41:25.890Z,47.67
2018-03-04T22:43:54.159Z,51.53
2018-03-04T22:46:21.650Z,50.90
2018-03-04T22:48:49.991Z,53.63
2018-03-04T22:51:17.454Z,51.10
2018-03-04T22:53:46.444Z,50.43
2018-03-04T22:56:13.910Z,52.63
2018-03-04T22:58:41.382Z,48.60
2018-03-04T23:01:09.618Z,51.13
2018-03-04T23:03:37.200Z,47.80
2018-03-04T23:06:04.769Z,49.67
2018-03-04T23:08:32.342Z,46.63
2018-03-04T23:11:00.585Z,47.13
2018-03-04T23:13:28.067Z,49.73
2018-03-04T23:15:55.531Z,51.20
2018-03-04T23:18:23.787Z,49.03
2018-03-04T23:20:51.346Z,48.83
2018-03-04T23:23:18.842Z,49.63
2018-03-04T23:25:47.085Z,50.93
2018-03-04T23:28:15.363Z,48.77
2018-03-04T23:30:42.912Z,48.93
2018-03-04T23:33:10.382Z,47.60
2018-03-04T23:35:37.842Z,49.20
2018-03-04T23:38:05.323Z,52.03
2018-03-04T23:40:33.563Z,49.73
2018-03-04T23:43:01.034Z,51.00
2018-03-04T23:45:28.604Z,47.80
2018-03-04T23:47:56.155Z,48.90
2018-03-04T23:50:23.641Z,49.70
2018-03-04T23:52:51.982Z,49.40
2018-03-04T23:55:19.450Z,49.83
2018-03-04T23:57:46.997Z,49.67
